Time;durP1;ratioP1;P1;durP2;ratioP2;P2;SDS_P1;SDS_P2;PMS_P1;PMS_P2;Temp;Humidity;BMP_temperature;BMP_pressure;BME280_temperature;BME280_humidity;BME280_pressure;Samples;Min_cycle;Max_cycle;Signal;HPM_P1;HPM_P2
2022/05/07 00:01:35;;;;;;;7.78;4.72;;;;;;;6.26;96.39;99311.28;4221901;27;20239;-75
2022/05/07 00:03:35;;;;;;;7.05;4.72;;;;;;;6.20;95.91;99305.94;4222694;27;20039;-74
2022/05/07 00:05:37;;;;;;;6.57;4.65;;;;;;;6.17;96.43;99306.59;4222970;27;20042;-74
2022/05/07 00:07:37;;;;;;;6.90;5.10;;;;;;;6.11;95.74;99298.88;4222609;27;20335;-74
2022/05/07 00:09:38;;;;;;;5.70;4.25;;;;;;;6.06;96.75;99302.63;4222463;27;20032;-74
2022/05/07 00:11:38;;;;;;;5.63;4.78;;;;;;;6.10;95.51;99306.31;4221765;28;20043;-74
2022/05/07 00:13:38;;;;;;;5.30;4.07;;;;;;;6.11;94.00;99301.63;4220560;27;20148;-74
2022/05/07 00:15:39;;;;;;;5.95;4.47;;;;;;;6.13;93.63;99308.41;4225339;27;20086;-74
2022/05/07 00:19:58;;;;;;;4.55;4.05;;;;;;;6.07;93.06;99298.72;4219162;28;20541;-74
2022/05/07 00:21:58;;;;;;;6.97;5.25;;;;;;;6.06;93.08;99315.56;4222852;28;20068;-74
2022/05/07 00:23:59;;;;;;;5.35;4.13;;;;;;;5.99;94.04;99307.81;4224255;27;20035;-74
2022/05/07 00:25:59;;;;;;;4.97;3.53;;;;;;;5.95;93.91;99306.84;4218641;28;20040;-74
2022/05/07 00:28:00;;;;;;;7.00;4.18;;;;;;;5.92;93.81;99304.75;4222858;27;20080;-74
2022/05/07 00:30:00;;;;;;;7.30;4.72;;;;;;;5.90;93.74;99307.81;4221851;27;20127;-74
2022/05/07 00:32:00;;;;;;;6.95;4.90;;;;;;;5.85;94.16;99316.19;4220260;27;20152;-74
2022/05/07 00:34:01;;;;;;;7.18;4.95;;;;;;;5.82;95.13;99318.81;4224105;27;20042;-74
2022/05/07 00:36:02;;;;;;;7.35;5.50;;;;;;;5.85;93.11;99312.66;4221455;28;20391;-75
2022/05/07 00:38:02;;;;;;;6.78;4.47;;;;;;;5.82;93.69;99314.13;4223116;28;20027;-75
2022/05/07 00:40:03;;;;;;;7.65;4.40;;;;;;;5.77;92.86;99308.78;4222246;28;20027;-75
2022/05/07 00:42:05;;;;;;;5.28;4.53;;;;;;;5.72;93.26;99311.72;4222202;27;20028;-75
2022/05/07 00:44:06;;;;;;;8.57;4.93;;;;;;;5.64;95.31;99299.63;4224015;28;20035;-75
2022/05/07 00:46:06;;;;;;;8.13;4.60;;;;;;;5.60;96.79;99312.38;4224412;27;20031;-74
2022/05/07 00:48:06;;;;;;;9.65;7.07;;;;;;;5.58;96.45;99308.34;4223965;27;20046;-74
2022/05/07 00:52:27;;;;;;;27.23;14.85;;;;;;;5.44;99.22;99294.78;4225219;27;20050;-74
2022/05/07 00:54:27;;;;;;;25.92;15.60;;;;;;;5.43;100.00;99298.66;4225184;27;20395;-74
2022/05/07 00:56:27;;;;;;;25.00;15.23;;;;;;;5.47;98.52;99298.84;4226984;27;20325;-74
2022/05/07 00:58:28;;;;;;;20.05;13.55;;;;;;;5.47;98.33;99296.09;4223052;27;20050;-74
2022/05/07 01:00:28;;;;;;;20.25;12.85;;;;;;;5.49;97.12;99300.13;4221247;27;20040;-74
2022/05/07 01:02:28;;;;;;;18.17;12.88;;;;;;;5.54;96.84;99288.13;4221937;27;20119;-74
2022/05/07 01:04:29;;;;;;;22.40;13.10;;;;;;;5.54;96.33;99299.13;4221800;28;20042;-74
2022/05/07 01:06:30;;;;;;;13.07;9.07;;;;;;;5.53;95.64;99289.28;4233059;27;20484;-74
2022/05/07 01:08:31;;;;;;;11.85;7.60;;;;;;;5.55;95.23;99303.50;4220474;28;20138;-74
2022/05/07 01:10:32;;;;;;;11.80;7.32;;;;;;;5.56;94.74;99302.38;4224480;27;20423;-75
2022/05/07 01:12:33;;;;;;;9.93;7.70;;;;;;;5.53;93.78;99290.09;4225768;27;20051;-74
2022/05/07 01:14:33;;;;;;;11.20;7.18;;;;;;;5.44;94.44;99294.78;4222290;27;20144;-74
2022/05/07 01:16:33;;;;;;;8.65;6.45;;;;;;;5.38;96.00;99290.59;4222318;27;20071;-74
2022/05/07 01:18:34;;;;;;;8.40;5.90;;;;;;;5.35;97.52;99294.78;4224142;27;20205;-74
2022/05/07 01:20:34;;;;;;;10.85;6.60;;;;;;;5.37;96.83;99291.72;4221884;28;20044;-74
2022/05/07 01:22:35;;;;;;;9.23;6.10;;;;;;;5.39;96.33;99289.47;4225816;27;20092;-74
2022/05/07 01:24:35;;;;;;;11.85;6.30;;;;;;;5.47;95.08;99287.84;4221807;28;20039;-74
2022/05/07 01:26:36;;;;;;;7.03;5.65;;;;;;;5.56;94.91;99280.41;4225320;27;20071;-74
2022/05/07 01:28:37;;;;;;;8.02;6.00;;;;;;;5.57;94.72;99285.56;4226211;27;20125;-74
2022/05/07 01:30:38;;;;;;;8.13;5.47;;;;;;;5.65;93.96;99275.72;4222356;27;20372;-74
2022/05/07 01:32:38;;;;;;;6.82;4.93;;;;;;;5.81;91.84;99276.81;4222496;27;20046;-74
2022/05/07 01:34:38;;;;;;;7.75;5.13;;;;;;;5.87;91.94;99280.16;4225889;27;20051;-74
2022/05/07 01:36:39;;;;;;;6.55;4.38;;;;;;;5.85;92.39;99276.94;4221322;27;20047;-74
2022/05/07 01:38:40;;;;;;;6.78;5.28;;;;;;;5.73;92.89;99274.88;4226509;27;20040;-74
2022/05/07 01:40:40;;;;;;;7.80;4.78;;;;;;;5.72;91.98;99276.03;4222110;27;20048;-74
2022/05/07 01:42:40;;;;;;;6.00;4.85;;;;;;;5.59;92.98;99277.81;4224737;27;20374;-74
2022/05/07 01:44:41;;;;;;;8.27;4.82;;;;;;;5.43;95.54;99273.16;4223010;27;20139;-74
2022/05/07 01:49:00;;;;;;;6.43;4.65;;;;;;;5.35;96.07;99269.28;4219584;28;20096;-74
2022/05/07 01:51:00;;;;;;;7.10;4.57;;;;;;;5.40;93.80;99277.34;4221373;28;20298;-74
2022/05/07 01:53:01;;;;;;;6.80;4.82;;;;;;;5.43;94.17;99265.72;4220849;27;20272;-74
2022/05/07 01:55:02;;;;;;;6.13;4.70;;;;;;;5.45;94.13;99265.38;4221414;28;20146;-74
2022/05/07 01:57:03;;;;;;;6.40;5.07;;;;;;;5.48;93.70;99268.31;4220518;28;20044;-74
2022/05/07 01:59:03;;;;;;;8.20;4.43;;;;;;;5.56;92.83;99267.50;4223817;27;20429;-74
2022/05/07 02:01:03;;;;;;;7.28;4.97;;;;;;;5.55;91.92;99265.88;4221223;28;20826;-74
2022/05/07 02:03:04;;;;;;;10.60;6.57;;;;;;;5.60;92.27;99271.19;4221219;27;20118;-74
2022/05/07 02:05:04;;;;;;;7.90;5.03;;;;;;;5.56;92.90;99269.44;4220740;28;20069;-74
2022/05/07 02:07:05;;;;;;;7.72;4.93;;;;;;;5.51;92.92;99273.13;4219857;28;20039;-74
2022/05/07 02:09:05;;;;;;;5.35;4.53;;;;;;;5.50;92.07;99265.22;4220075;27;20039;-74
2022/05/07 02:11:06;;;;;;;7.82;4.97;;;;;;;5.48;92.48;99276.53;4222354;27;20538;-74
2022/05/07 02:13:06;;;;;;;6.30;5.05;;;;;;;5.43;93.34;99282.19;4220351;27;20145;-74
2022/05/07 02:15:07;;;;;;;7.38;5.03;;;;;;;5.32;93.42;99273.50;4219192;28;20052;-74
2022/05/07 02:17:07;;;;;;;6.15;4.63;;;;;;;5.18;93.58;99272.84;4220801;28;20062;-74
2022/05/07 02:19:07;;;;;;;7.35;4.82;;;;;;;5.05;95.28;99280.13;4222338;27;20067;-74
2022/05/07 02:21:08;;;;;;;8.88;5.65;;;;;;;4.92;96.79;99285.75;4227136;27;20140;-74
2022/05/07 02:23:09;;;;;;;7.10;4.97;;;;;;;4.84;97.33;99278.31;4225976;27;20039;-74
2022/05/07 02:25:09;;;;;;;8.15;5.90;;;;;;;4.74;97.94;99276.69;4219484;28;20070;-74
2022/05/07 02:27:09;;;;;;;9.65;5.05;;;;;;;4.65;98.77;99281.34;4220514;28;20056;-74
2022/05/07 02:29:10;;;;;;;9.93;6.18;;;;;;;4.62;99.00;99285.50;4219831;28;20272;-74
2022/05/07 02:31:10;;;;;;;9.32;6.13;;;;;;;4.61;98.43;99283.09;4220803;27;20035;-74
2022/05/07 02:33:10;;;;;;;11.50;6.82;;;;;;;4.63;98.44;99278.91;4222542;27;20043;-74
2022/05/07 02:35:11;;;;;;;9.15;5.68;;;;;;;4.68;98.29;99276.03;4231375;27;20044;-74
2022/05/07 02:37:12;;;;;;;11.52;6.70;;;;;;;4.77;98.12;99276.03;4220698;28;20387;-74
2022/05/07 02:39:12;;;;;;;9.48;5.82;;;;;;;4.86;96.42;99281.53;4219557;27;20415;-74
2022/05/07 02:43:31;;;;;;;6.95;4.55;;;;;;;4.86;96.41;99281.53;4224360;27;20671;-74
2022/05/07 02:45:32;;;;;;;7.18;5.22;;;;;;;4.84;96.84;99279.13;4220319;28;20718;-74
2022/05/07 02:47:37;;;;;;;8.25;5.45;;;;;;;4.86;96.08;99281.53;4219812;27;20527;-74
2022/05/07 02:49:37;;;;;;;7.65;5.30;;;;;;;4.81;95.27;99278.97;4218190;28;20035;-74
2022/05/07 02:51:37;;;;;;;6.55;4.75;;;;;;;4.77;95.21;99287.00;4220784;28;20107;-74
2022/05/07 02:53:38;;;;;;;7.30;5.03;;;;;;;4.70;96.60;99281.19;4220251;28;20046;-74
2022/05/07 02:55:38;;;;;;;8.48;5.50;;;;;;;4.67;98.05;99287.31;4220466;28;20040;-74
2022/05/07 02:57:39;;;;;;;8.85;5.53;;;;;;;4.62;99.36;99274.53;4219620;27;20294;-74
2022/05/07 02:59:39;;;;;;;9.77;6.18;;;;;;;4.62;100.00;99280.03;4219552;27;20043;-74
2022/05/07 03:01:42;;;;;;;7.03;5.50;;;;;;;4.57;99.70;99279.41;4219823;28;20089;-73
2022/05/07 03:03:43;;;;;;;7.70;5.38;;;;;;;4.56;100.00;99277.78;4219852;28;20048;-74
2022/05/07 03:05:43;;;;;;;7.88;5.55;;;;;;;4.61;100.00;99283.91;4220307;27;20047;-74
2022/05/07 03:07:44;;;;;;;6.30;4.90;;;;;;;4.62;98.88;99274.53;4219623;27;20043;-74
2022/05/07 03:09:44;;;;;;;8.20;5.22;;;;;;;4.69;98.04;99280.38;4224208;27;20031;-74
2022/05/07 03:11:44;;;;;;;7.47;5.38;;;;;;;4.72;97.20;99278.94;4233059;27;20342;-74
2022/05/07 03:13:44;;;;;;;5.53;4.63;;;;;;;4.72;95.59;99277.00;4226263;27;20285;-74
2022/05/07 03:15:45;;;;;;;5.95;4.78;;;;;;;4.67;95.62;99276.34;4228800;27;20479;-74
2022/05/07 03:17:45;;;;;;;6.72;4.70;;;;;;;4.66;96.42;99274.72;4220076;28;20054;-74
2022/05/07 03:19:45;;;;;;;7.43;5.65;;;;;;;4.69;96.08;99274.88;4219541;28;20479;-74
2022/05/07 03:21:47;;;;;;;7.85;6.15;;;;;;;4.69;95.83;99279.56;4219631;28;20111;-74
2022/05/07 03:23:47;;;;;;;7.10;5.00;;;;;;;4.66;96.33;99274.72;4220351;27;20538;-74
2022/05/07 03:25:47;;;;;;;7.38;5.05;;;;;;;4.66;95.26;99269.25;4228291;27;20071;-74
2022/05/07 03:27:48;;;;;;;8.05;4.68;;;;;;;4.62;96.19;99268.25;4222644;27;20241;-74
2022/05/07 03:29:48;;;;;;;9.70;6.28;;;;;;;4.58;96.72;99273.59;4219198;28;20542;-74
2022/05/07 03:31:49;;;;;;;12.27;6.40;;;;;;;4.53;96.57;99270.97;4219670;28;20065;-74
2022/05/07 03:33:49;;;;;;;10.18;5.40;;;;;;;4.50;97.48;99275.19;4219443;28;20039;-74
2022/05/07 03:35:50;;;;;;;8.75;5.20;;;;;;;4.39;98.57;99268.38;4219617;28;20112;-74
2022/05/07 03:37:50;;;;;;;7.25;5.20;;;;;;;4.35;99.31;99274.81;4218962;28;20152;-74
2022/05/07 03:39:51;;;;;;;8.77;5.53;;;;;;;4.30;100.00;99273.00;4219208;28;20047;-74
2022/05/07 03:41:51;;;;;;;8.35;5.45;;;;;;;4.28;99.56;99269.78;4220163;28;20051;-74
2022/05/07 03:43:51;;;;;;;11.18;5.68;;;;;;;4.22;98.56;99271.06;4226646;28;20043;-74
2022/05/07 03:45:52;;;;;;;9.65;5.90;;;;;;;4.13;99.40;99270.19;4221316;28;20078;-74
2022/05/07 03:47:52;;;;;;;7.90;5.43;;;;;;;4.08;100.00;99268.44;4219471;28;20065;-74
2022/05/07 03:49:52;;;;;;;9.40;5.78;;;;;;;4.08;100.00;99270.38;4224876;28;20294;-74
2022/05/07 03:54:12;;;;;;;6.38;5.13;;;;;;;4.21;100.00;99280.38;4221021;27;20563;-74
2022/05/07 03:56:12;;;;;;;7.43;5.30;;;;;;;4.25;99.12;99272.34;4224443;27;20032;-74
2022/05/07 03:58:17;;;;;;;6.95;4.85;;;;;;;4.27;98.27;99268.16;4219665;28;20325;-74
2022/05/07 04:00:17;;;;;;;7.85;5.28;;;;;;;4.31;97.23;99274.66;4218244;28;20043;-74
2022/05/07 04:02:18;;;;;;;7.22;5.03;;;;;;;4.29;97.45;99265.09;4219077;28;20368;-74
2022/05/07 04:04:18;;;;;;;11.15;5.32;;;;;;;4.29;96.79;99276.88;4227558;27;20059;-74
2022/05/07 04:06:18;;;;;;;10.93;5.57;;;;;;;4.31;96.96;99274.66;4219564;28;21165;-74
2022/05/07 04:08:19;;;;;;;7.90;4.90;;;;;;;4.43;96.54;99279.50;4229704;27;20050;-74
2022/05/07 04:10:19;;;;;;;8.70;5.10;;;;;;;4.53;94.96;99278.41;4222744;28;20023;-74
2022/05/07 04:12:21;;;;;;;11.88;5.78;;;;;;;4.58;94.32;99278.25;4219643;28;20541;-74
2022/05/07 04:14:21;;;;;;;11.32;5.50;;;;;;;4.64;93.97;99282.47;4219549;28;20052;-74
2022/05/07 04:16:22;;;;;;;10.15;5.80;;;;;;;4.65;94.72;99282.16;4221301;28;20070;-74
2022/05/07 04:18:22;;;;;;;7.05;4.95;;;;;;;4.59;95.25;99277.94;4218823;28;20137;-74
2022/05/07 04:20:23;;;;;;;8.60;5.32;;;;;;;4.58;96.16;99278.25;4220359;28;20471;-74
2022/05/07 04:22:23;;;;;;;8.63;6.00;;;;;;;4.57;96.78;99288.41;4222604;28;20370;-74
2022/05/07 04:24:23;;;;;;;9.85;5.72;;;;;;;4.62;95.52;99279.22;4222794;28;20039;-74
2022/05/07 04:26:23;;;;;;;6.25;4.57;;;;;;;4.69;95.40;99282.31;4222931;27;20096;-74
2022/05/07 04:28:24;;;;;;;6.90;5.07;;;;;;;4.73;93.44;99283.31;4232664;27;20407;-74
2022/05/07 04:30:24;;;;;;;6.72;4.43;;;;;;;4.73;94.50;99286.84;4227394;27;20122;-74
2022/05/07 04:32:25;;;;;;;7.57;4.95;;;;;;;4.66;95.23;99285.69;4223128;27;20051;-74
2022/05/07 04:34:28;;;;;;;6.55;4.35;;;;;;;4.63;95.07;99287.13;4227046;27;20032;-74
2022/05/07 04:36:28;;;;;;;;;;;;;;;4.61;96.29;99285.84;4222645;27;20039;-74
2022/05/07 04:38:28;;;;;;;6.57;4.70;;;;;;;4.57;95.99;99288.41;4221513;27;20382;-74
2022/05/07 04:40:29;;;;;;;7.70;4.30;;;;;;;4.56;96.10;99284.06;4222750;27;20051;-74
2022/05/07 04:42:30;;;;;;;7.72;4.78;;;;;;;4.57;96.82;99290.34;4222125;28;20043;-74
2022/05/07 04:44:30;;;;;;;8.82;4.75;;;;;;;4.57;97.67;99282.13;4222341;28;20035;-74
2022/05/07 04:46:30;;;;;;;6.93;4.60;;;;;;;4.60;96.99;99276.81;4228812;27;20716;-74
2022/05/07 04:48:31;;;;;;;5.80;4.65;;;;;;;4.62;97.07;99290.19;4221466;28;20190;-74
2022/05/07 04:50:31;;;;;;;6.38;4.60;;;;;;;4.70;96.91;99284.72;4220796;27;20450;-74
2022/05/07 04:52:31;;;;;;;8.07;4.65;;;;;;;4.82;96.10;99292.34;4226180;27;20113;-74
2022/05/07 04:54:32;;;;;;;6.68;4.60;;;;;;;4.93;95.41;99285.41;4227719;27;20047;-74
2022/05/07 04:56:33;;;;;;;5.30;4.43;;;;;;;5.01;95.08;99287.34;4221809;28;20090;-74
2022/05/07 04:58:33;;;;;;;7.05;4.35;;;;;;;5.09;94.02;99283.00;4221255;28;20134;-74
2022/05/07 05:00:33;;;;;;;5.95;4.45;;;;;;;5.15;93.71;99283.66;4222119;27;20052;-74
2022/05/07 05:02:34;;;;;;;7.45;5.00;;;;;;;5.21;93.68;99277.69;4227370;27;20063;-74
2022/05/07 05:04:34;;;;;;;9.73;5.10;;;;;;;5.30;94.18;99286.72;4222232;28;20366;-74
2022/05/07 05:06:34;;;;;;;8.30;4.70;;;;;;;5.36;93.20;99288.16;4228592;27;20055;-74
2022/05/07 05:08:35;;;;;;;9.25;5.22;;;;;;;5.44;93.40;99289.28;4220080;27;20070;-74
2022/05/07 05:10:35;;;;;;;5.97;4.97;;;;;;;5.52;93.30;99291.22;4223427;27;20066;-74
2022/05/07 05:12:36;;;;;;;7.00;5.00;;;;;;;5.59;94.02;99283.31;4225576;27;20044;-74
2022/05/07 05:16:55;;;;;;;7.30;5.32;;;;;;;5.74;95.35;99298.47;4228648;27;20135;-74
2022/05/07 05:18:56;;;;;;;9.23;5.82;;;;;;;5.80;95.87;99301.84;4221593;28;20491;-74
2022/05/07 05:20:56;;;;;;;6.95;4.95;;;;;;;5.87;95.54;99302.13;4167366;27;20099;-74
2022/05/07 05:22:56;;;;;;;9.77;6.30;;;;;;;5.96;97.42;99302.16;4222721;27;20380;-74
2022/05/07 05:24:57;;;;;;;7.93;5.10;;;;;;;6.06;98.08;99297.13;4221868;27;20047;-74
2022/05/07 05:26:57;;;;;;;8.10;5.53;;;;;;;6.16;99.31;99301.44;4222746;27;20075;-74
2022/05/07 05:28:58;;;;;;;8.10;5.72;;;;;;;6.25;100.00;99312.41;4225776;27;20044;-74
2022/05/07 05:30:59;;;;;;;9.23;6.10;;;;;;;6.31;100.00;99305.59;4221521;27;20046;-74
2022/05/07 05:32:59;;;;;;;8.30;5.53;;;;;;;6.39;100.00;99313.00;4221323;28;20148;-74
2022/05/07 05:35:00;;;;;;;8.77;5.65;;;;;;;6.44;100.00;99305.38;4227205;27;20035;-74
2022/05/07 05:37:00;;;;;;;6.75;5.22;;;;;;;6.53;100.00;99299.81;4221199;27;20043;-74
2022/05/07 05:39:00;;;;;;;6.63;5.47;;;;;;;6.62;99.77;99310.78;4222296;27;20036;-74
2022/05/07 05:41:01;;;;;;;14.07;5.32;;;;;;;6.69;99.29;99306.38;4219752;27;20477;-74
2022/05/07 05:43:01;;;;;;;6.95;5.40;;;;;;;6.76;98.82;99309.41;4229075;27;20052;-74
2022/05/07 05:45:02;;;;;;;7.47;5.35;;;;;;;6.82;96.98;99311.97;4223558;27;20134;-74
2022/05/07 05:47:03;;;;;;;9.57;5.30;;;;;;;6.94;95.58;99317.56;4230216;27;20130;-74
2022/05/07 05:49:04;;;;;;;7.80;4.90;;;;;;;7.02;94.73;99311.19;4219711;28;20078;-74
2022/05/07 05:51:04;;;;;;;6.03;5.10;;;;;;;7.10;94.38;99310.31;4225812;27;20043;-74
2022/05/07 05:53:04;;;;;;;7.53;5.18;;;;;;;7.20;94.73;99317.38;4226119;27;20456;-74
2022/05/07 05:55:05;;;;;;;6.57;4.70;;;;;;;7.29;94.20;99318.94;4221124;28;20466;-74
2022/05/07 05:57:05;;;;;;;6.78;4.82;;;;;;;7.36;94.25;99315.63;4221341;27;20206;-74
2022/05/07 05:59:06;;;;;;;6.07;4.95;;;;;;;7.47;93.71;99319.59;4220153;27;20047;-74
2022/05/07 06:01:07;;;;;;;7.43;4.80;;;;;;;7.52;92.96;99308.34;4221161;28;20364;-74
2022/05/07 06:03:07;;;;;;;7.35;5.47;;;;;;;7.68;93.95;99316.00;4222428;27;20436;-74
2022/05/07 06:05:08;;;;;;;6.78;4.57;;;;;;;7.76;92.94;99321.44;4222314;27;20139;-74
2022/05/07 06:07:09;;;;;;;5.95;4.70;;;;;;;7.90;93.01;99321.16;4221314;28;20039;-74
2022/05/07 06:09:09;;;;;;;6.25;5.32;;;;;;;8.02;93.59;99323.13;4219877;27;20097;-74
2022/05/07 06:11:10;;;;;;;6.38;4.60;;;;;;;8.12;93.13;99314.44;4224899;27;20128;-75
2022/05/07 06:13:11;;;;;;;7.88;4.95;;;;;;;8.25;93.51;99316.06;4222445;27;20047;-74
2022/05/07 06:15:12;;;;;;;8.70;5.10;;;;;;;8.35;91.41;99318.38;4222386;27;20101;-74
2022/05/07 06:17:12;;;;;;;6.95;4.97;;;;;;;8.42;91.25;99318.63;4221171;28;20134;-74
2022/05/07 06:19:12;;;;;;;7.15;4.80;;;;;;;8.48;90.31;99307.38;4222174;27;20589;-74
2022/05/07 06:21:12;;;;;;;7.45;4.93;;;;;;;8.56;89.32;99311.97;4221539;27;20092;-74
2022/05/07 06:23:13;;;;;;;12.30;5.57;;;;;;;8.68;94.30;99312.78;4221181;27;20212;-74
2022/05/07 06:27:32;;;;;;;6.97;5.65;;;;;;;8.94;96.48;99315.19;4221684;27;20093;-74
2022/05/07 06:29:32;;;;;;;8.05;6.35;;;;;;;9.03;94.74;99311.50;4221267;27;20059;-74
2022/05/07 06:31:32;;;;;;;7.13;5.60;;;;;;;9.10;94.82;99312.53;4220985;27;20062;-74
2022/05/07 06:33:33;;;;;;;6.70;5.40;;;;;;;9.19;95.27;99309.63;4221159;27;20044;-74
2022/05/07 06:35:33;;;;;;;6.80;5.68;;;;;;;9.27;94.50;99311.47;4221638;27;20063;-74
2022/05/07 06:37:35;;;;;;;7.57;5.40;;;;;;;9.37;95.66;99307.41;4222036;27;20039;-74
2022/05/07 06:39:35;;;;;;;9.07;5.93;;;;;;;9.47;93.15;99312.44;4222477;27;20108;-74
2022/05/07 06:41:35;;;;;;;6.68;4.90;;;;;;;9.53;93.46;99313.81;4218433;27;20262;-74
2022/05/07 06:43:36;;;;;;;8.55;5.10;;;;;;;9.60;90.49;99308.47;4221042;27;20445;-74
2022/05/07 06:45:36;;;;;;;5.78;4.18;;;;;;;9.78;83.65;99314.50;4220098;28;20090;-74
2022/05/07 06:47:37;;;;;;;8.88;4.97;;;;;;;9.91;83.62;99321.56;4220476;27;20043;-74
2022/05/07 06:49:37;;;;;;;8.35;5.03;;;;;;;10.04;89.01;99319.56;4223180;27;20107;-74
2022/05/07 06:51:37;;;;;;;6.53;5.10;;;;;;;10.12;90.40;99318.59;4224519;27;20574;-74
2022/05/07 06:53:38;;;;;;;7.30;5.10;;;;;;;10.17;89.99;99318.31;4219702;27;20105;-74
2022/05/07 06:55:54;;;;;;;6.10;5.05;;;;;;;10.22;88.95;99323.63;4223939;27;20086;-74
2022/05/07 06:57:55;;;;;;;5.60;4.72;;;;;;;10.31;88.67;99320.69;4225395;27;20055;-74
2022/05/07 06:59:55;;;;;;;4.93;4.38;;;;;;;10.35;85.36;99316.06;4220055;27;20390;-74
2022/05/07 07:01:56;;;;;;;12.50;4.60;;;;;;;10.42;82.09;99313.44;4222349;27;20395;-74
2022/05/07 07:03:56;;;;;;;6.75;4.57;;;;;;;10.50;83.30;99317.19;4219731;27;20062;-74
2022/05/07 07:05:57;;;;;;;6.63;4.40;;;;;;;10.59;84.26;99326.13;4220944;27;20126;-74
2022/05/07 07:07:57;;;;;;;5.82;4.70;;;;;;;10.67;83.51;99319.59;4222522;27;20035;-74
2022/05/07 07:09:58;;;;;;;6.72;4.50;;;;;;;10.74;84.06;99318.97;4220005;27;20039;-74
2022/05/07 07:11:58;;;;;;;4.95;4.10;;;;;;;10.77;81.54;99319.09;4219513;27;20081;-74
2022/05/07 07:13:58;;;;;;;7.63;4.10;;;;;;;10.88;79.42;99322.09;4225936;27;20043;-74
2022/05/07 07:15:59;;;;;;;5.68;4.63;;;;;;;10.97;82.80;99323.50;4221999;27;20689;-74
2022/05/07 07:18:00;;;;;;;5.13;4.25;;;;;;;11.01;82.81;99315.31;4224081;27;20139;-74
2022/05/07 07:20:00;;;;;;;5.07;4.40;;;;;;;11.06;81.76;99315.00;4222169;27;20475;-74
2022/05/07 07:22:01;;;;;;;8.20;4.32;;;;;;;11.13;80.33;99309.63;4222042;27;20322;-75
2022/05/07 07:24:01;;;;;;;7.38;4.50;;;;;;;11.18;82.15;99311.31;4220564;27;20028;-74
2022/05/07 07:26:01;;;;;;;6.25;4.18;;;;;;;11.28;82.26;99307.97;4223972;27;20379;-74
2022/05/07 07:28:02;;;;;;;5.93;4.60;;;;;;;11.40;80.63;99315.34;4224198;27;20355;-74
2022/05/07 07:30:02;;;;;;;6.22;4.30;;;;;;;11.45;80.48;99306.75;4220914;27;20028;-75
2022/05/07 07:32:03;;;;;;;7.20;5.18;;;;;;;11.56;80.26;99306.97;4224058;27;20094;-74
2022/05/07 07:34:04;;;;;;;6.68;4.95;;;;;;;11.65;81.91;99311.13;4220757;27;20054;-74
2022/05/07 07:36:09;;;;;;;6.07;4.88;;;;;;;11.78;82.23;99303.47;4220310;28;20028;-74
2022/05/07 07:38:10;;;;;;;8.70;4.93;;;;;;;11.97;82.73;99308.22;4221037;28;20035;-74
2022/05/07 07:40:11;;;;;;;6.35;4.57;;;;;;;12.08;81.92;99301.72;4218860;28;20439;-74
2022/05/07 07:42:12;;;;;;;7.28;5.05;;;;;;;12.21;80.40;99299.56;4218680;28;20027;-74
2022/05/07 07:44:12;;;;;;;8.13;5.30;;;;;;;12.37;82.35;99310.53;4223812;27;20371;-74
2022/05/07 07:48:31;;;;;;;5.90;5.05;;;;;;;12.66;80.46;99297.97;4220283;27;20230;-74
2022/05/07 07:50:35;;;;;;;7.53;5.28;;;;;;;12.71;78.96;99294.06;4223446;28;20040;-74
2022/05/07 07:52:35;;;;;;;6.28;5.05;;;;;;;12.77;76.29;99298.13;4224625;27;20077;-75
2022/05/07 07:54:35;;;;;;;6.15;4.47;;;;;;;12.82;77.80;99300.56;4221571;28;20043;-74
2022/05/07 07:56:36;;;;;;;7.32;4.47;;;;;;;12.88;75.74;99291.53;4221769;28;20032;-74
2022/05/07 07:58:36;;;;;;;5.32;4.60;;;;;;;12.95;74.51;99299.19;4229010;27;20631;-74
2022/05/07 08:00:37;;;;;;;6.40;4.50;;;;;;;13.02;72.83;99302.06;4225592;27;20205;-74
2022/05/07 08:02:49;;;;;;;5.53;4.53;;;;;;;13.08;73.14;99291.47;4223745;27;20054;-74
2022/05/07 08:04:54;;;;;;;6.33;4.77;;;;;;;13.16;75.46;99290.38;4227572;27;20195;-74
2022/05/07 08:11:46;;;;;;;6.78;4.50;;;;;;;13.52;73.26;99300.00;4229844;27;20604;-74
2022/05/07 08:13:48;;;;;;;6.40;4.63;;;;;;;13.58;72.45;99294.94;4229430;27;20073;-74
2022/05/07 08:15:49;;;;;;;8.40;4.45;;;;;;;13.72;74.90;99303.44;4232581;27;20110;-74
2022/05/07 08:17:51;;;;;;;7.43;4.65;;;;;;;13.75;70.78;99297.94;4231637;27;20460;-74
2022/05/07 08:19:51;;;;;;;7.97;5.05;;;;;;;13.80;73.35;99290.41;4223239;27;20063;-74
2022/05/07 08:21:52;;;;;;;5.90;4.60;;;;;;;13.88;73.79;99295.66;4229898;27;20215;-74
2022/05/07 08:23:52;;;;;;;6.53;3.65;;;;;;;13.95;68.54;99287.41;4224596;27;20542;-74
2022/05/07 08:25:53;;;;;;;5.40;4.00;;;;;;;14.09;66.12;99299.88;4226157;27;20039;-74
2022/05/07 08:27:53;;;;;;;4.72;4.00;;;;;;;14.16;67.65;99294.41;4226191;27;20039;-74
2022/05/07 08:29:56;;;;;;;5.35;4.20;;;;;;;14.21;68.44;99294.03;4221752;28;20042;-75
2022/05/07 08:31:57;;;;;;;6.65;4.25;;;;;;;14.28;67.31;99300.47;4215165;28;20051;-74
2022/05/07 08:33:58;;;;;;;5.68;3.65;;;;;;;14.33;65.57;99286.22;4221881;27;20031;-74
2022/05/07 08:36:01;;;;;;;4.47;3.50;;;;;;;14.49;66.39;99291.56;4222628;27;20258;-74
2022/05/07 08:38:02;;;;;;;8.32;3.80;;;;;;;14.64;64.18;99289.66;4221370;27;20082;-74
2022/05/07 08:40:03;;;;;;;6.47;3.75;;;;;;;14.72;66.14;99284.97;4217277;27;20043;-74
2022/05/07 08:42:04;;;;;;;5.03;3.42;;;;;;;14.78;66.49;99289.78;4224873;27;20034;-75
2022/05/07 08:44:04;;;;;;;4.85;3.47;;;;;;;14.87;66.19;99292.25;4219833;27;20031;-75
2022/05/07 08:46:11;;;;;;;5.40;3.60;;;;;;;14.95;67.41;99296.69;4218363;27;20467;-74
2022/05/07 08:48:11;;;;;;;9.68;4.30;;;;;;;15.00;65.51;99290.75;4216770;27;20578;-75
2022/05/07 08:50:13;;;;;;;5.63;3.60;;;;;;;15.04;64.20;99291.56;4215942;27;20024;-74
2022/05/07 08:52:14;;;;;;;4.40;3.72;;;;;;;15.25;62.36;99292.91;4221711;27;20027;-75
2022/05/07 08:54:14;;;;;;;5.65;3.70;;;;;;;15.35;64.89;99284.56;4218199;27;20876;-74
2022/05/07 08:56:15;;;;;;;4.65;3.10;;;;;;;15.41;61.29;99283.03;4223928;27;20032;-74
2022/05/07 08:58:16;;;;;;;6.43;4.40;;;;;;;15.51;61.15;99287.06;4223735;27;20027;-75
2022/05/07 09:00:20;;;;;;;5.03;2.88;;;;;;;15.52;56.42;99287.84;4220355;27;20077;-74
2022/05/07 09:02:21;;;;;;;3.72;2.80;;;;;;;15.55;57.41;99278.69;4219454;27;20036;-75
2022/05/07 09:04:21;;;;;;;3.13;2.83;;;;;;;15.59;60.27;99280.31;4222085;27;20078;-74
2022/05/07 09:06:24;;;;;;;4.63;3.45;;;;;;;15.61;60.15;99277.16;4224843;27;20032;-74
2022/05/07 09:08:26;;;;;;;4.43;3.10;;;;;;;15.61;60.73;99279.94;4222746;27;20036;-74
2022/05/07 09:10:31;;;;;;;4.05;2.78;;;;;;;15.66;57.57;99285.16;4222297;27;20076;-75
2022/05/07 09:12:32;;;;;;;3.30;2.40;;;;;;;15.67;56.89;99284.75;4217063;27;20046;-75
2022/05/07 09:14:32;;;;;;;4.65;3.03;;;;;;;15.80;57.22;99285.19;4218286;27;20044;-74
2022/05/07 09:16:45;;;;;;;4.50;2.55;;;;;;;15.84;57.93;99283.22;4220657;27;20039;-75
2022/05/07 09:18:47;;;;;;;5.18;3.03;;;;;;;15.88;55.56;99284.00;4227322;27;20091;-74
2022/05/07 09:21:16;;;;;;;3.88;2.45;;;;;;;15.93;54.83;99282.84;4220767;27;20040;-74
2022/05/07 09:23:22;;;;;;;4.65;2.30;;;;;;;15.98;56.49;99286.06;4161299;27;20100;-74
2022/05/07 09:25:24;;;;;;;6.10;2.40;;;;;;;16.05;56.85;99285.25;4220555;27;20457;-74
2022/05/07 09:27:25;;;;;;;5.63;3.08;;;;;;;16.10;55.02;99287.66;4227785;27;20356;-74
2022/05/07 09:29:29;;;;;;;3.50;2.40;;;;;;;16.18;54.91;99278.13;4223868;27;20301;-74
2022/05/07 09:31:31;;;;;;;3.58;2.58;;;;;;;16.23;53.03;99279.72;4225698;27;20474;-74
2022/05/07 09:33:33;;;;;;;5.30;2.30;;;;;;;16.29;52.82;99276.13;4224591;27;20103;-74
2022/05/07 09:35:49;;;;;;;4.38;2.58;;;;;;;16.43;56.03;99286.53;4223096;27;20048;-74
2022/05/07 09:37:57;;;;;;;5.07;2.60;;;;;;;16.57;56.29;99282.94;4219275;27;20090;-74
2022/05/07 09:40:05;;;;;;;5.85;2.72;;;;;;;16.69;55.26;99278.97;4224295;27;20455;-74
2022/05/07 09:42:07;;;;;;;3.10;2.20;;;;;;;16.83;53.33;99271.38;4222223;27;20043;-74
2022/05/07 09:44:08;;;;;;;3.22;1.98;;;;;;;16.95;49.26;99272.16;4225285;27;20024;-75
2022/05/07 09:46:09;;;;;;;2.70;1.90;;;;;;;16.95;47.77;99272.16;4223454;27;20028;-74
2022/05/07 09:48:12;;;;;;;5.00;2.15;;;;;;;17.00;46.61;99272.56;4222457;27;20125;-74
2022/05/07 09:50:21;;;;;;;3.17;2.38;;;;;;;17.03;47.05;99265.34;4222444;27;20343;-74
2022/05/07 09:52:22;;;;;;;3.83;2.22;;;;;;;17.02;46.94;99269.34;4222786;27;20491;-74
2022/05/07 09:59:00;;;;;;;3.10;2.70;;;;;;;17.23;47.82;99269.31;4220427;27;20101;-74
2022/05/07 10:01:15;;;;;;;4.38;2.78;;;;;;;17.37;48.96;99263.66;4220679;27;20031;-74
2022/05/07 10:03:21;;;;;;;3.15;2.40;;;;;;;17.40;48.83;99262.88;4224342;27;20096;-75